Time;durP1;ratioP1;P1;durP2;ratioP2;P2;SDS_P1;SDS_P2;PMS_P1;PMS_P2;Temp;Humidity;BMP_temperature;BMP_pressure;BME280_temperature;BME280_humidity;BME280_pressure;Samples;Min_cycle;Max_cycle;Signal;HPM_P1;HPM_P2
2023/07/11 00:01:31;;;;;;;8.05;6.13;;;23.70;99.90;;;;;;5089819;28;20028;-54
2023/07/11 00:03:57;;;;;;;11.32;6.82;;;23.70;99.90;;;;;;5102539;28;20084;-55
2023/07/11 00:06:23;;;;;;;7.47;6.22;;;;;;;;;;5100803;28;20131;-59
2023/07/11 00:08:49;;;;;;;8.07;6.13;;;;;;;;;;5085411;28;20437;-61
2023/07/11 00:11:17;;;;;;;6.15;5.15;;;23.80;99.90;;;;;;5110148;28;20032;-55
2023/07/11 00:13:43;;;;;;;7.18;5.03;;;23.80;99.90;;;;;;5109571;28;20378;-55
2023/07/11 00:16:12;;;;;;;7.50;4.93;;;23.70;99.90;;;;;;5108074;28;20103;-55
2023/07/11 00:18:38;;;;;;;9.45;5.22;;;23.60;99.90;;;;;;5107715;28;20471;-56
2023/07/11 00:21:04;;;;;;;6.55;5.05;;;23.00;99.90;;;;;;5105234;28;20028;-55
2023/07/11 00:23:30;;;;;;;6.45;4.47;;;22.90;99.90;;;;;;5109495;28;20019;-52
2023/07/11 00:25:56;;;;;;;6.80;4.95;;;22.80;99.90;;;;;;5108190;28;20039;-54
2023/07/11 00:28:22;;;;;;;5.80;5.20;;;22.80;99.90;;;;;;5112393;28;20031;-59
2023/07/11 00:30:51;;;;;;;7.10;4.80;;;22.60;99.90;;;;;;5107369;28;20028;-57
2023/07/11 00:33:17;;;;;;;5.95;4.75;;;22.80;99.90;;;;;;5109778;28;20059;-59
2023/07/11 00:35:49;;;;;;;6.43;4.55;;;22.70;99.90;;;;;;5112314;28;20417;-56
2023/07/11 00:38:15;;;;;;;6.90;5.00;;;22.60;99.90;;;;;;5107763;28;20099;-55
2023/07/11 00:40:47;;;;;;;6.22;4.75;;;22.50;99.90;;;;;;5108831;28;20146;-56
2023/07/11 00:43:17;;;;;;;7.68;5.25;;;22.40;99.90;;;;;;5106514;28;20070;-59
2023/07/11 00:45:49;;;;;;;6.07;5.00;;;22.60;99.90;;;;;;5112894;28;20028;-58
2023/07/11 00:48:16;;;;;;;7.10;5.03;;;22.70;99.90;;;;;;5107918;28;20383;-57
2023/07/11 00:50:44;;;;;;;5.50;4.43;;;22.70;99.90;;;;;;5100406;28;20059;-56
2023/07/11 00:53:12;;;;;;;7.95;5.00;;;22.60;99.90;;;;;;5108719;28;20040;-54
2023/07/11 00:55:38;;;;;;;6.20;4.93;;;22.70;99.90;;;;;;5103513;28;20035;-55
2023/07/11 00:58:05;;;;;;;8.38;5.20;;;22.30;99.90;;;;;;5108081;28;20038;-61
2023/07/11 01:00:31;;;;;;;7.47;4.63;;;22.20;99.90;;;;;;5086889;28;20046;-58
2023/07/11 01:02:57;;;;;;;8.38;5.32;;;22.00;99.90;;;;;;5110018;28;20019;-53
2023/07/11 01:05:22;;;;;;;8.52;5.18;;;22.00;99.90;;;;;;5105976;28;20081;-58
2023/07/11 01:07:48;;;;;;;6.43;5.03;;;22.10;99.90;;;;;;5104140;28;20032;-53
2023/07/11 01:10:14;;;;;;;7.10;5.05;;;22.10;99.90;;;;;;5084574;28;20038;-55
2023/07/11 01:12:48;;;;;;;7.18;5.47;;;22.30;99.90;;;;;;5103276;28;20023;-55
2023/07/11 01:15:15;;;;;;;6.13;4.93;;;22.40;99.90;;;;;;5110535;28;20470;-54
2023/07/11 01:17:41;;;;;;;6.78;4.78;;;22.50;99.90;;;;;;5108339;28;20081;-57
2023/07/11 01:20:09;;;;;;;5.95;4.72;;;22.60;99.90;;;;;;5112446;28;20027;-55
2023/07/11 01:22:41;;;;;;;7.53;4.72;;;22.60;99.90;;;;;;5100670;28;20111;-58
2023/07/11 01:25:13;;;;;;;7.20;4.55;;;22.60;99.90;;;;;;5104591;28;20036;-56
2023/07/11 01:27:41;;;;;;;9.20;5.47;;;22.70;99.90;;;;;;5103185;28;20020;-59
2023/07/11 01:30:10;;;;;;;7.10;4.43;;;22.40;99.90;;;;;;5104812;28;20518;-57
2023/07/11 01:32:36;;;;;;;6.13;4.85;;;22.30;99.90;;;;;;5072866;28;20032;-55
2023/07/11 01:35:03;;;;;;;9.35;5.60;;;22.20;99.90;;;;;;5083728;28;20052;-56
2023/07/11 01:37:30;;;;;;;7.90;4.82;;;22.00;99.90;;;;;;5090111;28;20045;-57
2023/07/11 01:39:55;;;;;;;5.95;3.97;;;22.00;99.90;;;;;;5081805;28;20494;-58
2023/07/11 01:42:22;;;;;;;6.82;4.38;;;22.00;99.90;;;;;;5082490;28;20562;-56
2023/07/11 01:44:48;;;;;;;5.65;4.53;;;22.10;99.90;;;;;;5089305;28;20044;-56
2023/07/11 01:47:14;;;;;;;5.70;4.40;;;22.20;99.90;;;;;;5080395;28;20032;-56
2023/07/11 01:49:40;;;;;;;7.05;5.47;;;22.30;99.90;;;;;;5081513;28;20043;-56
2023/07/11 01:52:16;;;;;;;6.85;4.65;;;22.40;99.90;;;;;;5056332;28;20050;-55
2023/07/11 01:54:42;;;;;;;9.15;4.78;;;22.50;99.90;;;;;;5075965;28;20044;-53
2023/07/11 01:57:07;;;;;;;9.07;5.07;;;22.60;99.90;;;;;;5088425;28;20510;-59
2023/07/11 01:59:34;;;;;;;10.07;5.18;;;22.60;99.90;;;;;;5054662;28;20041;-56
2023/07/11 02:01:59;;;;;;;8.45;4.70;;;22.50;99.90;;;;;;5088309;28;20099;-58
2023/07/11 02:04:26;;;;;;;7.75;4.90;;;22.30;99.90;;;;;;5082732;28;20511;-61
2023/07/11 02:06:52;;;;;;;7.70;4.65;;;22.50;99.90;;;;;;5103678;28;20126;-55
2023/07/11 02:09:19;;;;;;;7.18;4.72;;;22.60;99.90;;;;;;5105657;28;20115;-56
2023/07/11 02:11:45;;;;;;;7.28;4.72;;;22.60;99.90;;;;;;5104456;28;20028;-56
2023/07/11 02:14:19;;;;;;;7.55;5.05;;;22.60;99.90;;;;;;5110944;28;20046;-57
2023/07/11 02:16:50;;;;;;;7.25;4.72;;;22.70;99.90;;;;;;5106543;28;20027;-59
2023/07/11 02:19:19;;;;;;;6.55;4.82;;;22.70;99.90;;;;;;5104389;27;20111;-52
2023/07/11 02:21:46;;;;;;;8.15;4.50;;;22.70;99.90;;;;;;5097398;28;20035;-52
2023/07/11 02:24:14;;;;;;;8.07;4.38;;;22.70;99.90;;;;;;5106952;28;20031;-52
2023/07/11 02:26:40;;;;;;;5.00;4.43;;;22.70;99.90;;;;;;5105504;28;20039;-53
2023/07/11 02:29:07;;;;;;;7.80;5.40;;;22.70;99.90;;;;;;5106720;28;20028;-57
2023/07/11 02:31:34;;;;;;;7.53;4.60;;;22.70;99.90;;;;;;5104713;28;20467;-55
2023/07/11 02:34:00;;;;;;;4.93;4.07;;;22.70;99.90;;;;;;5092021;28;20399;-56
2023/07/11 02:36:26;;;;;;;8.60;5.45;;;22.30;99.90;;;;;;5098927;28;20031;-57
2023/07/11 02:38:52;;;;;;;7.22;5.07;;;22.20;99.90;;;;;;5106562;28;20027;-53
2023/07/11 02:41:19;;;;;;;7.68;4.55;;;22.30;99.90;;;;;;5103338;28;20083;-55
2023/07/11 02:43:48;;;;;;;5.60;4.55;;;22.40;99.90;;;;;;5099352;28;20038;-57
2023/07/11 02:46:15;;;;;;;5.95;5.05;;;22.40;99.90;;;;;;5108656;28;20360;-54
2023/07/11 02:48:42;;;;;;;8.15;4.93;;;22.40;99.90;;;;;;5104467;27;20028;-52
2023/07/11 02:51:08;;;;;;;8.13;4.28;;;22.10;99.90;;;;;;5106108;28;20027;-60
2023/07/11 02:53:33;;;;;;;5.68;4.57;;;22.20;99.90;;;;;;5103448;28;20031;-55
2023/07/11 02:55:59;;;;;;;5.78;5.10;;;22.30;99.90;;;;;;5105779;28;20024;-60
2023/07/11 02:58:25;;;;;;;8.23;5.32;;;21.70;99.90;;;;;;5104123;28;20035;-54
2023/07/11 03:00:54;;;;;;;7.50;5.03;;;;;;;;;;5095515;28;20047;-58
2023/07/11 03:03:20;;;;;;;7.43;5.22;;;21.30;99.90;;;;;;5109633;28;20032;-55
2023/07/11 03:05:47;;;;;;;5.85;4.85;;;21.30;99.90;;;;;;5109715;27;20106;-55
2023/07/11 03:08:14;;;;;;;7.85;5.03;;;;;;;;;;5082280;28;20042;-55
2023/07/11 03:10:40;;;;;;;7.63;5.05;;;21.50;99.90;;;;;;5103346;28;20066;-58
2023/07/11 03:13:06;;;;;;;8.63;5.00;;;21.50;99.90;;;;;;5107406;28;20069;-60
2023/07/11 03:15:39;;;;;;;8.43;5.50;;;21.80;99.90;;;;;;5108230;28;20055;-57
2023/07/11 03:18:06;;;;;;;6.28;5.30;;;22.00;99.90;;;;;;5102690;28;20036;-57
2023/07/11 03:20:39;;;;;;;10.73;5.07;;;22.10;99.90;;;;;;5108305;28;20038;-54
2023/07/11 03:23:06;;;;;;;9.52;5.75;;;22.20;99.90;;;;;;5107854;28;20067;-56
2023/07/11 03:25:32;;;;;;;11.30;4.95;;;22.30;99.90;;;;;;5098437;28;20169;-55
2023/07/11 03:55:02;;;;;;;8.65;5.80;;;22.70;99.90;;;;;;5153372;27;20831;-51
2023/07/11 03:57:27;;;;;;;10.73;5.28;;;22.60;99.90;;;;;;5103252;28;20028;-53
2023/07/11 03:59:53;;;;;;;14.52;5.63;;;22.70;99.90;;;;;;5145919;27;20033;-51
2023/07/11 04:02:19;;;;;;;9.02;5.50;;;22.60;99.90;;;;;;5144866;27;20359;-52
2023/07/11 04:04:45;;;;;;;7.22;5.22;;;22.60;99.90;;;;;;5157902;27;20068;-56
2023/07/11 04:07:10;;;;;;;9.55;6.07;;;22.70;99.90;;;;;;5134599;27;20074;-56
2023/07/11 04:09:40;;;;;;;10.63;5.22;;;22.70;99.90;;;;;;5151669;27;20100;-53
2023/07/11 04:12:07;;;;;;;9.90;5.60;;;22.80;99.90;;;;;;5137783;27;20032;-56
2023/07/11 04:14:32;;;;;;;13.52;6.07;;;22.90;99.90;;;;;;5140128;27;20031;-52
2023/07/11 04:16:58;;;;;;;12.45;6.03;;;23.00;99.90;;;;;;5158325;27;20083;-54
2023/07/11 04:19:24;;;;;;;11.57;5.97;;;23.10;99.90;;;;;;5142821;27;20467;-55
2023/07/11 04:21:49;;;;;;;5.63;4.90;;;23.10;99.90;;;;;;5143577;27;20027;-56
2023/07/11 04:24:15;;;;;;;10.10;6.10;;;23.20;99.90;;;;;;5136627;27;20034;-52
2023/07/11 04:26:41;;;;;;;6.57;4.90;;;23.30;99.90;;;;;;5131020;27;20046;-56
2023/07/11 04:29:07;;;;;;;10.60;5.40;;;23.20;99.90;;;;;;5138712;27;20029;-55
2023/07/11 04:31:33;;;;;;;8.85;5.43;;;23.10;99.90;;;;;;5140277;27;20034;-56
2023/07/11 04:33:58;;;;;;;7.50;5.35;;;23.20;99.90;;;;;;5129367;27;20033;-54
2023/07/11 04:36:24;;;;;;;6.82;5.60;;;23.10;99.90;;;;;;5151533;27;20018;-52
2023/07/11 04:38:50;;;;;;;9.10;5.22;;;23.20;99.90;;;;;;5147259;27;20040;-53
2023/07/11 04:41:16;;;;;;;8.05;5.13;;;23.20;99.90;;;;;;5152301;27;20024;-54
2023/07/11 04:43:41;;;;;;;7.90;5.53;;;23.30;99.90;;;;;;5152897;27;20038;-56
2023/07/11 04:46:08;;;;;;;7.78;5.85;;;23.30;99.90;;;;;;5142196;27;20370;-57
2023/07/11 04:48:35;;;;;;;8.07;5.43;;;23.10;99.90;;;;;;5144020;27;20031;-55
2023/07/11 04:51:03;;;;;;;10.82;5.85;;;22.70;99.90;;;;;;5147380;27;20087;-54
2023/07/11 04:53:31;;;;;;;6.97;5.35;;;22.70;99.90;;;;;;5146926;27;20047;-55
2023/07/11 04:56:02;;;;;;;10.07;5.63;;;22.80;99.90;;;;;;5134000;27;20458;-51
2023/07/11 04:58:29;;;;;;;8.38;5.97;;;23.00;99.90;;;;;;5130543;27;20027;-54
2023/07/11 05:01:05;;;;;;;8.82;6.22;;;23.20;99.90;;;;;;5137091;27;20031;-55
2023/07/11 05:03:30;;;;;;;8.65;5.85;;;23.40;99.90;;;;;;5138032;27;20035;-54
2023/07/11 05:05:57;;;;;;;8.63;6.88;;;23.50;99.90;;;;;;5067652;27;20041;-56
2023/07/11 05:08:23;;;;;;;11.60;6.88;;;23.50;99.90;;;;;;5139565;27;20049;-56
2023/07/11 05:10:58;;;;;;;7.88;5.70;;;23.50;99.90;;;;;;5130636;27;20504;-52
2023/07/11 05:13:23;;;;;;;9.52;6.10;;;23.60;99.90;;;;;;5147831;27;20019;-53
2023/07/11 05:15:49;;;;;;;9.18;6.55;;;23.80;99.90;;;;;;5136517;27;20030;-54
2023/07/11 05:18:15;;;;;;;10.60;6.57;;;;;;;;;;5135900;27;20683;-55
2023/07/11 05:20:41;;;;;;;9.35;6.13;;;24.20;99.90;;;;;;5150322;27;20040;-55
2023/07/11 05:23:07;;;;;;;10.02;6.30;;;;;;;;;;5123606;27;20043;-54
2023/07/11 05:25:36;;;;;;;10.90;7.00;;;24.60;99.90;;;;;;5124107;27;20259;-55
2023/07/11 05:28:02;;;;;;;10.32;7.25;;;24.50;99.90;;;;;;5123401;27;20721;-56
2023/07/11 05:30:28;;;;;;;8.77;6.60;;;24.50;99.90;;;;;;5121079;27;20032;-55
2023/07/11 05:32:55;;;;;;;9.63;6.95;;;24.40;99.90;;;;;;5139413;27;20036;-54
2023/07/11 05:35:20;;;;;;;7.90;6.10;;;24.40;99.90;;;;;;5133477;27;20028;-55
2023/07/11 05:37:46;;;;;;;10.32;6.50;;;24.50;99.90;;;;;;5134934;27;20104;-55
2023/07/11 05:40:12;;;;;;;7.95;6.13;;;;;;;;;;5142123;27;20035;-56
2023/07/11 05:42:38;;;;;;;9.52;7.13;;;25.10;99.90;;;;;;5142608;27;20019;-55
2023/07/11 05:45:04;;;;;;;9.73;6.32;;;;;;;;;;5114221;27;20045;-55
2023/07/11 05:47:30;;;;;;;10.20;7.22;;;25.00;99.90;;;;;;5135271;27;20027;-55
2023/07/11 05:49:56;;;;;;;13.02;7.43;;;25.20;99.90;;;;;;5132645;27;20488;-55
2023/07/11 05:52:22;;;;;;;10.15;6.35;;;;;;;;;;5112928;27;20031;-55
2023/07/11 05:54:48;;;;;;;13.63;6.57;;;25.80;99.90;;;;;;5140453;27;20131;-56
2023/07/11 05:57:13;;;;;;;6.80;5.90;;;25.90;99.90;;;;;;5140666;27;20110;-56
2023/07/11 05:59:39;;;;;;;8.63;6.00;;;;;;;;;;5136725;27;20035;-56
2023/07/11 06:02:08;;;;;;;7.68;6.07;;;;;;;;;;5128113;27;20442;-55
2023/07/11 06:04:34;;;;;;;8.05;6.43;;;;;;;;;;5136022;27;20047;-55
2023/07/11 06:07:00;;;;;;;9.75;6.13;;;26.60;99.90;;;;;;5133861;27;20030;-55
2023/07/11 06:09:25;;;;;;;9.80;6.70;;;26.50;99.90;;;;;;5146577;27;20427;-55
2023/07/11 06:11:51;;;;;;;9.32;6.75;;;26.50;99.90;;;;;;5132879;27;20030;-55
2023/07/11 06:14:20;;;;;;;10.68;6.07;;;;;;;;;;5132110;27;20136;-56
2023/07/11 06:16:46;;;;;;;8.93;6.68;;;27.00;99.90;;;;;;5134038;27;20019;-55
2023/07/11 06:19:12;;;;;;;9.23;6.18;;;27.10;99.90;;;;;;5106315;28;20077;-55
2023/07/11 06:21:38;;;;;;;8.77;6.22;;;27.40;99.90;;;;;;5087572;28;20047;-56
2023/07/11 06:24:04;;;;;;;9.82;5.85;;;;;;;;;;5098077;28;20458;-55
2023/07/11 06:26:30;;;;;;;12.57;6.40;;;27.90;99.90;;;;;;5097944;28;20445;-55
2023/07/11 06:28:56;;;;;;;10.43;6.10;;;27.90;99.90;;;;;;5096417;28;20040;-55
2023/07/11 06:31:22;;;;;;;10.90;6.15;;;;;;;;;;5101818;28;20024;-55
2023/07/11 06:33:50;;;;;;;10.60;6.07;;;;;;;;;;5097927;28;20065;-55
2023/07/11 06:36:16;;;;;;;8.70;6.25;;;;;;;;;;5096827;28;20023;-55
2023/07/11 06:38:42;;;;;;;7.55;5.93;;;;;;;;;;5079561;28;20044;-56
2023/07/11 06:41:08;;;;;;;8.18;6.10;;;28.90;99.90;;;;;;5097258;28;20029;-58
2023/07/11 06:43:34;;;;;;;8.98;5.85;;;;;;;;;;5097468;28;20519;-56
2023/07/11 06:46:01;;;;;;;8.60;5.90;;;;;;;;;;5098176;28;20047;-57
2023/07/11 06:48:28;;;;;;;9.32;6.75;;;;;;;;;;5102306;28;20383;-57
2023/07/11 06:50:59;;;;;;;8.95;5.97;;;;;;;;;;5117713;27;20035;-56
2023/07/11 06:53:28;;;;;;;9.52;5.53;;;;;;;;;;5132026;27;20389;-56
2023/07/11 06:55:54;;;;;;;7.75;5.20;;;;;;;;;;5126581;27;20478;-57
2023/07/11 06:58:21;;;;;;;8.00;5.15;;;;;;;;;;5129008;27;20092;-57
2023/07/11 07:00:54;;;;;;;8.40;5.25;;;;;;;;;;5131487;27;20031;-58
2023/07/11 07:03:20;;;;;;;7.25;5.43;;;;;;;;;;5133123;27;20474;-57
2023/07/11 07:06:00;;;;;;;7.10;5.15;;;30.20;99.90;;;;;;5128566;27;20087;-58
2023/07/11 07:08:25;;;;;;;8.65;5.18;;;30.30;99.90;;;;;;5135461;27;20037;-57
2023/07/11 07:10:52;;;;;;;9.30;5.70;;;30.20;99.90;;;;;;5131122;27;20095;-57
2023/07/11 07:13:19;;;;;;;8.35;5.93;;;;;;;;;;5132502;27;20015;-54
2023/07/11 07:15:49;;;;;;;13.18;6.32;;;;;;;;;;5130142;27;20063;-54
2023/07/11 07:18:15;;;;;;;10.23;5.22;;;;;;;;;;5126111;27;20080;-54
2023/07/11 07:20:42;;;;;;;9.10;5.80;;;;;;;;;;5147358;27;20058;-55
2023/07/11 07:23:09;;;;;;;6.28;5.28;;;;;;;;;;5131799;27;20050;-55
2023/07/11 07:25:36;;;;;;;7.00;5.22;;;;;;;;;;5130150;27;20038;-52
2023/07/11 07:28:02;;;;;;;7.50;5.60;;;;;;;;;;5132447;27;20026;-51
2023/07/11 07:30:28;;;;;;;10.48;5.90;;;;;;;;;;5137168;27;20061;-52
2023/07/11 07:32:54;;;;;;;12.00;6.20;;;;;;;;;;5118014;27;20032;-52
2023/07/11 07:35:21;;;;;;;11.82;5.80;;;;;;;;;;5124609;27;20065;-52
2023/07/11 07:37:47;;;;;;;7.40;5.15;;;;;;;;;;5129102;27;20032;-51
2023/07/11 07:40:14;;;;;;;10.90;5.40;;;;;;;;;;5130888;27;20020;-52
2023/07/11 07:42:40;;;;;;;9.68;5.45;;;;;;;;;;5131120;27;20118;-53
2023/07/11 07:45:07;;;;;;;13.23;5.45;;;;;;;;;;5116935;28;20107;-53
2023/07/11 07:47:35;;;;;;;10.88;4.95;;;;;;;;;;5078269;28;20031;-55
2023/07/11 07:50:01;;;;;;;11.45;5.57;;;;;;;;;;5110721;28;20461;-53
2023/07/11 07:52:27;;;;;;;8.35;4.60;;;;;;;;;;5109461;28;20118;-52
2023/07/11 07:54:53;;;;;;;5.53;4.40;;;28.30;99.90;;;;;;5079196;28;20054;-54
2023/07/11 07:57:18;;;;;;;7.63;4.65;;;30.30;99.90;;;;;;5084349;28;20039;-53
2023/07/11 07:59:44;;;;;;;5.90;4.63;;;;;;;;;;5105042;28;20042;-53
2023/07/11 08:02:10;;;;;;;10.82;5.10;;;30.60;99.90;;;;;;5118765;28;20114;-52
2023/07/11 08:04:36;;;;;;;13.27;6.55;;;30.70;99.90;;;;;;5115347;28;20195;-53
2023/07/11 08:07:03;;;;;;;7.25;5.15;;;30.70;99.90;;;;;;5105890;28;20019;-53
2023/07/11 08:09:29;;;;;;;8.02;4.45;;;30.60;99.90;;;;;;5112502;28;20097;-53
2023/07/11 08:12:03;;;;;;;11.23;4.90;;;31.00;99.90;;;;;;5119948;28;20039;-53
2023/07/11 08:14:29;;;;;;;10.43;5.95;;;;;;;;;;5110402;28;20449;-54
2023/07/11 08:16:55;;;;;;;9.20;5.20;;;;;;;;;;5125945;27;20035;-53
2023/07/11 08:19:21;;;;;;;5.35;4.55;;;;;;;;;;5132161;27;20030;-53
2023/07/11 08:21:47;;;;;;;6.07;4.97;;;;;;;;;;5124661;27;20034;-53
2023/07/11 08:24:13;;;;;;;7.90;5.35;;;31.40;99.90;;;;;;5130223;27;20058;-54
2023/07/11 08:26:38;;;;;;;8.07;4.00;;;31.60;99.90;;;;;;5130414;27;20531;-54
2023/07/11 08:29:04;;;;;;;9.90;4.85;;;31.60;99.90;;;;;;5140305;27;20103;-53
2023/07/11 08:31:30;;;;;;;4.80;4.03;;;31.80;99.90;;;;;;5136383;27;20113;-53
2023/07/11 08:33:56;;;;;;;5.43;3.72;;;31.90;99.90;;;;;;5142732;27;20023;-53
2023/07/11 08:36:22;;;;;;;6.82;4.60;;;32.00;99.90;;;;;;5122976;27;20038;-53
2023/07/11 08:38:47;;;;;;;7.38;4.20;;;32.30;99.90;;;;;;5088048;27;20871;-53
2023/07/11 08:41:32;;;;;;;6.05;3.50;;;32.30;99.90;;;;;;5134718;27;20023;-53
2023/07/11 08:44:06;;;;;;;7.35;4.10;;;32.40;99.90;;;;;;5145298;27;20072;-53
2023/07/11 08:46:39;;;;;;;5.88;4.10;;;;;;;;;;5133627;27;20374;-53
2023/07/11 08:49:06;;;;;;;6.70;3.80;;;;;;;;;;5128758;27;20015;-53
2023/07/11 08:51:32;;;;;;;6.20;3.78;;;;;;;;;;5133260;27;20082;-53
2023/07/11 08:54:02;;;;;;;8.45;3.63;;;33.10;99.90;;;;;;5142661;27;20532;-53
2023/07/11 08:56:43;;;;;;;6.80;4.15;;;33.00;99.90;;;;;;5128773;27;20423;-53
2023/07/11 08:59:14;;;;;;;5.97;4.07;;;;;;;;;;5130462;27;20110;-53
2023/07/11 09:01:51;;;;;;;6.45;3.85;;;;;;;;;;5144480;27;20259;-53
2023/07/11 09:04:20;;;;;;;6.03;3.97;;;;;;;;;;5140153;27;20129;-53
2023/07/11 09:06:59;;;;;;;7.10;3.80;;;33.40;99.90;;;;;;5144228;27;20386;-53
2023/07/11 09:09:25;;;;;;;5.50;3.40;;;33.40;99.40;;;;;;5134022;27;20025;-52
2023/07/11 09:11:54;;;;;;;4.68;3.65;;;33.50;98.60;;;;;;5136780;27;20015;-52
2023/07/11 09:14:31;;;;;;;5.82;3.67;;;33.60;98.70;;;;;;5133984;27;20405;-51
2023/07/11 09:17:20;;;;;;;9.68;3.88;;;33.70;98.10;;;;;;5130987;27;20030;-52
2023/07/11 09:20:05;;;;;;;4.53;3.22;;;33.90;97.20;;;;;;5135735;27;20007;-52
2023/07/11 09:22:44;;;;;;;6.03;3.38;;;33.70;96.60;;;;;;5132107;27;20027;-52
2023/07/11 09:25:21;;;;;;;4.32;2.85;;;33.80;96.70;;;;;;5129610;27;20023;-52
2023/07/11 09:27:52;;;;;;;5.80;3.40;;;33.90;99.70;;;;;;5134679;27;20028;-53
2023/07/11 09:30:33;;;;;;;4.45;3.30;;;33.90;96.10;;;;;;5113228;27;20036;-53
2023/07/11 09:33:13;;;;;;;5.63;3.75;;;34.10;96.20;;;;;;5117437;27;20039;-52
2023/07/11 09:35:41;;;;;;;5.53;3.20;;;33.80;95.20;;;;;;5109809;27;20109;-52
2023/07/11 09:38:17;;;;;;;4.63;3.30;;;33.90;95.00;;;;;;5115669;27;20459;-53
2023/07/11 09:40:54;;;;;;;5.68;3.08;;;33.80;95.00;;;;;;5107907;27;20066;-54
2023/07/11 09:43:20;;;;;;;7.50;3.85;;;33.80;95.80;;;;;;5089364;28;20040;-53
2023/07/11 09:45:46;;;;;;;7.50;3.88;;;34.00;96.80;;;;;;5103444;27;20198;-53
2023/07/11 09:48:15;;;;;;;7.15;3.65;;;;;;;;;;5108478;27;20023;-53
2023/07/11 09:50:47;;;;;;;6.47;3.50;;;34.20;99.90;;;;;;5118391;27;20048;-53
2023/07/11 09:53:23;;;;;;;6.28;3.75;;;34.00;96.50;;;;;;5114448;27;20137;-52
2023/07/11 09:55:57;;;;;;;6.72;3.38;;;;;;;;;;5113430;27;20050;-53
2023/07/11 09:58:23;;;;;;;7.97;3.88;;;34.30;95.00;;;;;;5112448;27;20039;-53
2023/07/11 10:00:52;;;;;;;10.02;4.18;;;34.70;95.00;;;;;;5126740;27;20039;-53
2023/07/11 10:03:24;;;;;;;8.38;3.85;;;34.70;95.40;;;;;;5133856;27;20039;-53
2023/07/11 10:05:52;;;;;;;7.65;3.53;;;34.70;95.50;;;;;;5134584;27;20027;-53
2023/07/11 10:08:29;;;;;;;5.63;3.40;;;34.70;95.20;;;;;;5132282;27;20027;-53
2023/07/11 10:11:02;;;;;;;8.45;4.43;;;34.40;95.20;;;;;;5146033;27;20428;-53
2023/07/11 10:13:29;;;;;;;7.28;4.30;;;34.70;95.20;;;;;;5139730;27;20023;-53
2023/07/11 10:15:57;;;;;;;6.60;3.53;;;34.90;95.50;;;;;;5133056;27;20023;-53
2023/07/11 10:18:25;;;;;;;5.50;3.53;;;;;;;;;;5116379;27;20178;-53
2023/07/11 10:20:58;;;;;;;8.18;4.20;;;35.10;94.90;;;;;;5138030;27;20083;-54
2023/07/11 10:23:26;;;;;;;7.95;3.40;;;35.20;94.50;;;;;;5113078;27;20039;-53
2023/07/11 10:25:54;;;;;;;7.15;3.60;;;35.10;94.20;;;;;;5143760;27;20026;-54
2023/07/11 10:28:32;;;;;;;8.30;4.00;;;35.20;93.80;;;;;;5131216;27;20110;-54
2023/07/11 10:31:21;;;;;;;10.38;3.47;;;35.40;96.50;;;;;;5142940;27;20095;-54
2023/07/11 10:34:16;;;;;;;4.97;3.58;;;35.30;94.50;;;;;;5136264;27;20084;-53
2023/07/11 10:36:49;;;;;;;4.25;3.22;;;35.50;94.50;;;;;;5089306;28;20059;-54
2023/07/11 10:39:20;;;;;;;9.27;4.00;;;35.50;94.70;;;;;;5090799;28;20035;-53
2023/07/11 10:42:04;;;;;;;5.97;3.38;;;35.70;94.30;;;;;;5089491;28;20067;-53
2023/07/11 10:44:44;;;;;;;6.95;3.25;;;35.90;99.00;;;;;;5055871;28;20052;-53
2023/07/11 10:47:09;;;;;;;6.97;3.65;;;36.20;99.90;;;;;;5090288;28;20114;-53
2023/07/11 10:49:44;;;;;;;7.55;3.33;;;35.80;99.30;;;;;;5090807;28;20467;-53
2023/07/11 10:52:22;;;;;;;4.38;2.90;;;35.80;99.70;;;;;;5087323;28;20024;-53
2023/07/11 10:55:07;;;;;;;7.18;3.80;;;35.70;99.90;;;;;;5045868;28;20048;-53
2023/07/11 10:57:41;;;;;;;6.38;3.58;;;36.20;99.90;;;;;;5090320;28;20023;-53
2023/07/11 11:00:36;;;;;;;10.80;4.25;;;36.20;99.90;;;;;;5086840;28;20122;-54
2023/07/11 11:03:31;;;;;;;4.97;3.35;;;36.20;95.10;;;;;;5089638;28;20048;-53
2023/07/11 11:06:01;;;;;;;7.05;4.20;;;;;;;;;;5089852;28;20052;-54
2023/07/11 11:08:36;;;;;;;6.75;3.45;;;36.60;93.90;;;;;;5040351;28;20032;-54
2023/07/11 11:11:37;;;;;;;9.00;4.30;;;36.30;94.10;;;;;;5090271;28;20032;-54
2023/07/11 11:14:12;;;;;;;7.78;3.83;;;36.50;93.70;;;;;;5053627;28;20395;-54
2023/07/11 11:16:52;;;;;;;12.07;3.63;;;36.30;92.50;;;;;;5023508;28;20040;-53
2023/07/11 11:19:36;;;;;;;6.03;3.75;;;36.40;93.00;;;;;;5061117;28;20143;-54
2023/07/11 11:22:01;;;;;;;6.95;3.63;;;36.60;92.90;;;;;;5063389;28;20044;-54
2023/07/11 11:24:57;;;;;;;6.00;3.75;;;36.40;92.30;;;;;;5015378;28;20053;-53
2023/07/11 11:27:48;;;;;;;6.05;3.55;;;36.60;92.20;;;;;;5054411;28;20052;-54
2023/07/11 11:30:28;;;;;;;5.30;3.63;;;36.80;92.80;;;;;;5061063;28;20131;-54
2023/07/11 11:33:20;;;;;;;9.40;3.65;;;36.70;92.60;;;;;;5062308;28;20067;-54
2023/07/11 11:36:12;;;;;;;7.60;3.72;;;37.10;93.10;;;;;;5024101;28;20464;-53
2023/07/11 11:38:42;;;;;;;4.55;3.30;;;37.30;92.60;;;;;;5005410;28;20040;-53
2023/07/11 11:41:15;;;;;;;7.40;3.67;;;36.80;91.80;;;;;;5066761;28;20029;-54
2023/07/11 11:43:45;;;;;;;5.43;3.38;;;36.70;92.20;;;;;;5065255;28;20040;-55
2023/07/11 11:46:12;;;;;;;10.38;3.83;;;37.10;91.80;;;;;;5060031;28;20090;-55
2023/07/11 11:48:40;;;;;;;5.53;2.90;;;36.70;91.50;;;;;;5057213;28;20067;-54
2023/07/11 11:51:12;;;;;;;6.50;3.80;;;36.80;91.30;;;;;;5102510;27;20084;-54
2023/07/11 11:53:44;;;;;;;6.47;3.28;;;36.70;91.90;;;;;;5134820;27;20482;-54
2023/07/11 11:56:13;;;;;;;9.35;3.10;;;36.80;91.00;;;;;;5138047;27;20030;-54
2023/07/11 11:59:14;;;;;;;3.40;3.00;;;37.00;91.70;;;;;;5140088;27;20038;-54
2023/07/11 12:01:57;;;;;;;5.38;3.70;;;37.20;91.40;;;;;;5087691;28;20036;-54
2023/07/11 12:04:29;;;;;;;4.07;3.40;;;37.20;90.30;;;;;;5089291;28;20102;-54
2023/07/11 12:07:12;;;;;;;5.03;3.20;;;37.00;90.90;;;;;;5093926;28;20032;-54
2023/07/11 12:09:44;;;;;;;6.25;3.58;;;37.40;91.30;;;;;;5072548;28;20095;-54
2023/07/11 12:12:11;;;;;;;4.40;3.35;;;37.60;90.50;;;;;;5092463;28;20433;-54
2023/07/11 12:14:59;;;;;;;5.70;3.25;;;37.20;90.10;;;;;;5091365;28;20067;-54
2023/07/11 12:17:33;;;;;;;5.95;3.50;;;37.60;90.50;;;;;;5070086;28;20495;-54
2023/07/11 12:20:05;;;;;;;4.18;3.42;;;37.50;89.60;;;;;;5092231;28;20035;-54
2023/07/11 12:22:32;;;;;;;3.75;2.70;;;;;;;;;;5093331;28;20174;-54
2023/07/11 12:25:21;;;;;;;7.80;3.33;;;;;;;;;;5094017;28;20519;-53
2023/07/11 12:27:57;;;;;;;4.28;3.33;;;;;;;;;;5071629;28;20495;-55
2023/07/11 12:30:40;;;;;;;5.75;3.10;;;38.00;94.80;;;;;;5071489;28;20041;-55
2023/07/11 12:33:15;;;;;;;10.50;3.05;;;;;;;;;;5072725;28;20137;-55
2023/07/11 12:35:42;;;;;;;4.75;3.10;;;38.20;98.70;;;;;;5072827;28;20450;-55
2023/07/11 12:38:15;;;;;;;7.40;3.90;;;;;;;;;;5085141;28;20028;-55
2023/07/11 12:40:47;;;;;;;8.48;3.78;;;38.40;99.90;;;;;;5085308;28;20035;-55
2023/07/11 12:43:28;;;;;;;9.13;3.58;;;38.30;97.70;;;;;;5039733;28;20180;-55
2023/07/11 12:46:31;;;;;;;10.38;3.13;;;38.30;97.10;;;;;;5077801;28;20111;-55
2023/07/11 12:48:58;;;;;;;3.90;3.08;;;38.60;99.40;;;;;;5012017;28;20230;-55
2023/07/11 12:51:36;;;;;;;4.45;3.33;;;38.40;99.90;;;;;;4974976;28;20040;-55
2023/07/11 12:54:15;;;;;;;5.55;3.22;;;38.20;99.80;;;;;;4974712;28;20051;-56
2023/07/11 12:56:51;;;;;;;5.45;3.22;;;38.10;99.90;;;;;;4975372;28;20042;-55
2023/07/11 12:59:27;;;;;;;6.45;3.53;;;38.00;99.70;;;;;;4968252;28;20045;-56
2023/07/11 13:01:57;;;;;;;4.70;3.60;;;38.00;99.20;;;;;;4973003;28;20070;-55
2023/07/11 13:04:42;;;;;;;6.93;3.60;;;37.70;97.90;;;;;;4983482;28;20046;-55
2023/07/11 13:07:16;;;;;;;7.97;3.42;;;37.60;91.50;;;;;;5004724;28;20033;-55
2023/07/11 13:09:50;;;;;;;5.65;3.22;;;37.60;90.80;;;;;;5011978;28;20429;-55
2023/07/11 13:12:19;;;;;;;3.70;3.17;;;37.70;91.50;;;;;;5008170;28;20042;-55
2023/07/11 13:14:47;;;;;;;7.70;3.53;;;37.70;91.00;;;;;;5008407;28;20030;-55
2023/07/11 13:17:15;;;;;;;7.38;3.60;;;37.50;91.70;;;;;;5007291;28;20738;-55
2023/07/11 13:19:42;;;;;;;7.07;3.80;;;37.90;91.70;;;;;;5011642;28;20042;-55
2023/07/11 13:22:16;;;;;;;8.35;4.00;;;37.70;90.80;;;;;;5008285;28;20105;-55
2023/07/11 13:24:42;;;;;;;7.28;3.55;;;37.40;90.50;;;;;;5054938;28;20052;-55
2023/07/11 13:27:20;;;;;;;4.28;3.17;;;37.60;91.60;;;;;;5092019;28;20067;-55
2023/07/11 13:29:51;;;;;;;7.28;3.38;;;37.60;90.90;;;;;;5088778;28;20031;-55
2023/07/11 13:32:21;;;;;;;5.90;4.15;;;37.80;91.80;;;;;;5132467;27;20038;-55
2023/07/11 13:34:50;;;;;;;4.50;3.25;;;37.70;91.70;;;;;;5134648;27;20098;-55
2023/07/11 13:37:46;;;;;;;7.32;4.15;;;37.70;91.00;;;;;;5137596;27;20122;-55
2023/07/11 13:40:37;;;;;;;7.43;3.40;;;37.60;91.90;;;;;;5076226;28;20069;-55
2023/07/11 13:43:15;;;;;;;6.73;4.00;;;37.80;91.70;;;;;;5051433;28;20049;-55
2023/07/11 13:45:41;;;;;;;10.85;4.00;;;37.80;91.30;;;;;;5052110;28;20504;-55
2023/07/11 13:48:18;;;;;;;5.20;3.50;;;37.60;91.10;;;;;;5017929;28;20079;-55